createdAt,value
2023-05-05T00:01:17.976Z,5.17
2023-05-05T00:03:59.193Z,4.03
2023-05-05T00:06:31.127Z,3.93
2023-05-05T00:09:05.049Z,4.67
2023-05-05T00:11:37.821Z,3.73
2023-05-05T00:14:27.129Z,3.80
2023-05-05T00:17:10.321Z,2.43
2023-05-05T00:19:42.420Z,5.37
2023-05-05T00:22:19.393Z,3.83
2023-05-05T00:24:49.272Z,5.20
2023-05-05T00:27:20.806Z,17.83
2023-05-05T00:29:56.375Z,2.97
2023-05-05T00:32:33.713Z,8.00
2023-05-05T00:35:07.414Z,3.70
2023-05-05T00:37:44.129Z,2.90
2023-05-05T00:40:21.442Z,5.97
2023-05-05T00:42:53.088Z,4.20
2023-05-05T00:45:24.854Z,4.10
2023-05-05T00:48:04.850Z,4.07
2023-05-05T00:50:39.841Z,5.97
2023-05-05T00:53:16.675Z,4.67
2023-05-05T00:56:05.597Z,3.10
2023-05-05T00:58:54.646Z,6.63
2023-05-05T01:01:37.593Z,4.13
2023-05-05T01:04:39.403Z,2.90
2023-05-05T01:07:18.207Z,3.10
2023-05-05T01:10:11.033Z,9.83
2023-05-05T01:12:55.241Z,3.63
2023-05-05T01:15:50.888Z,7.20
2023-05-05T01:18:25.802Z,5.70
2023-05-05T01:21:24.034Z,5.10
2023-05-05T01:24:11.563Z,3.17
2023-05-05T01:26:50.965Z,3.20
2023-05-05T01:29:35.489Z,4.27
2023-05-05T01:32:13.046Z,11.17
2023-05-05T01:34:46.278Z,4.23
2023-05-05T01:37:23.345Z,5.27
2023-05-05T01:39:57.602Z,4.83
2023-05-05T01:42:28.650Z,6.60
2023-05-05T01:44:59.814Z,6.50
2023-05-05T01:47:40.999Z,5.57
2023-05-05T01:50:11.616Z,3.57
2023-05-05T01:52:54.129Z,6.10
2023-05-05T01:55:34.226Z,6.47
2023-05-05T01:58:08.285Z,5.10
2023-05-05T02:00:37.953Z,4.20
2023-05-05T02:03:13.941Z,3.67
2023-05-05T02:05:50.165Z,4.87
2023-05-05T02:08:25.508Z,6.20
2023-05-05T02:11:12.150Z,7.17
2023-05-05T02:14:01.980Z,6.87
2023-05-05T02:16:40.180Z,6.77
2023-05-05T02:19:18.343Z,5.27
2023-05-05T02:21:49.332Z,6.33
2023-05-05T02:24:27.560Z,5.23
2023-05-05T02:27:03.455Z,7.80
2023-05-05T02:29:37.556Z,5.70
2023-05-05T02:32:12.108Z,5.43
2023-05-05T02:34:44.289Z,3.17
2023-05-05T02:37:17.777Z,5.73
2023-05-05T02:39:53.894Z,3.80
2023-05-05T02:42:36.212Z,6.27
2023-05-05T02:45:11.432Z,6.13
2023-05-05T02:47:42.853Z,8.93
2023-05-05T02:50:36.209Z,8.23
2023-05-05T02:53:06.064Z,6.30
2023-05-05T02:55:56.989Z,3.60
2023-05-05T03:01:19.614Z,4.57
2023-05-05T03:03:49.862Z,5.00
2023-05-05T03:06:24.718Z,6.53
2023-05-05T03:09:19.501Z,7.47
2023-05-05T03:12:02.280Z,4.93
2023-05-05T03:14:44.078Z,5.90
2023-05-05T03:17:21.909Z,5.33
2023-05-05T03:19:52.493Z,4.67
2023-05-05T03:22:24.122Z,6.07
2023-05-05T03:24:54.741Z,4.87
2023-05-05T03:27:27.999Z,6.07
2023-05-05T03:30:02.463Z,15.17
2023-05-05T03:32:36.651Z,3.97
2023-05-05T03:35:05.990Z,5.20
2023-05-05T03:37:36.616Z,4.17
2023-05-05T03:40:08.245Z,6.90
2023-05-05T03:42:37.262Z,5.83
2023-05-05T03:45:07.286Z,5.60
2023-05-05T03:47:38.500Z,4.17
2023-05-05T03:50:12.209Z,12.67
2023-05-05T03:52:43.816Z,4.67
2023-05-05T03:55:16.949Z,4.87
2023-05-05T03:57:57.873Z,5.57
2023-05-05T04:03:15.187Z,5.07
2023-05-05T04:05:56.448Z,19.77
2023-05-05T04:08:27.212Z,5.50
2023-05-05T04:10:58.562Z,5.73
2023-05-05T04:13:30.204Z,5.33
2023-05-05T04:16:00.642Z,6.03
2023-05-05T04:18:49.248Z,6.77
2023-05-05T04:21:32.144Z,2.93
2023-05-05T04:24:10.354Z,7.03
2023-05-05T04:26:41.685Z,5.97
2023-05-05T04:29:20.742Z,8.10
2023-05-05T04:32:07.925Z,5.53
2023-05-05T04:34:59.797Z,12.23
2023-05-05T04:37:27.510Z,10.70
2023-05-05T04:39:59.102Z,16.20
2023-05-05T04:42:36.010Z,6.07
2023-05-05T04:45:07.475Z,5.60
2023-05-05T04:47:41.015Z,10.17
2023-05-05T04:50:12.793Z,5.20
2023-05-05T04:52:47.657Z,4.90
2023-05-05T04:55:22.054Z,6.30
2023-05-05T04:57:54.229Z,8.73
2023-05-05T05:00:35.661Z,8.33
2023-05-05T05:03:32.444Z,9.10
2023-05-05T05:06:41.907Z,6.43
2023-05-05T05:09:27.793Z,5.73
2023-05-05T05:12:07.952Z,5.80
2023-05-05T05:14:44.119Z,9.73
2023-05-05T05:17:23.308Z,7.30
2023-05-05T05:20:12.980Z,9.37
2023-05-05T05:22:52.935Z,4.97
2023-05-05T05:26:02.519Z,5.30
2023-05-05T05:32:54.843Z,4.27
2023-05-05T05:39:19.725Z,5.00
2023-05-05T05:42:12.202Z,6.23
2023-05-05T05:45:03.344Z,3.53
2023-05-05T05:47:55.910Z,4.47
2023-05-05T05:50:27.296Z,8.87
2023-05-05T05:52:56.250Z,5.50
2023-05-05T05:55:25.529Z,8.83
2023-05-05T05:57:54.265Z,7.83
2023-05-05T06:00:27.863Z,3.60
2023-05-05T06:03:04.743Z,4.43
2023-05-05T06:05:55.614Z,8.27
2023-05-05T06:11:09.789Z,2.40
2023-05-05T06:13:45.211Z,3.17
2023-05-05T07:35:02.209Z,3.03
2023-05-05T07:37:52.193Z,3.70
2023-05-05T08:03:38.759Z,2.90
2023-05-05T08:06:36.857Z,1.90
2023-05-05T08:09:22.928Z,3.67
2023-05-05T08:22:27.609Z,3.87
2023-05-05T08:25:31.358Z,2.77
2023-05-05T08:28:10.778Z,2.10
2023-05-05T08:30:54.600Z,2.33
2023-05-05T08:36:39.830Z,2.00
2023-05-05T08:39:17.581Z,1.90
2023-05-05T08:41:52.253Z,1.90
2023-05-05T08:44:22.877Z,2.70
2023-05-05T08:46:51.734Z,2.23
2023-05-05T08:49:28.062Z,5.20
2023-05-05T08:52:04.177Z,2.83
2023-05-05T08:54:40.945Z,5.77
2023-05-05T08:57:17.873Z,2.60
2023-05-05T08:59:47.903Z,2.97
2023-05-05T09:02:24.158Z,2.20
2023-05-05T09:05:00.685Z,2.47
2023-05-05T09:07:29.120Z,2.47
2023-05-05T09:09:57.865Z,2.80
2023-05-05T09:12:28.865Z,5.80
2023-05-05T09:15:03.641Z,2.83
2023-05-05T09:17:32.266Z,2.70
2023-05-05T09:20:07.772Z,2.70
2023-05-05T09:22:37.325Z,3.00
2023-05-05T09:25:06.602Z,2.30
2023-05-05T09:27:39.708Z,3.03
2023-05-05T09:30:11.201Z,1.97
2023-05-05T09:32:46.816Z,2.43
2023-05-05T09:35:21.221Z,3.90
2023-05-05T09:37:49.828Z,4.03
2023-05-05T09:40:22.235Z,2.00
2023-05-05T09:42:51.122Z,3.27
2023-05-05T09:45:38.070Z,3.10
2023-05-05T09:48:10.972Z,2.80
2023-05-05T09:50:52.851Z,3.73
2023-05-05T09:53:26.438Z,1.77
2023-05-05T09:55:57.400Z,2.60
2023-05-05T09:58:28.596Z,3.10
2023-05-05T10:01:01.718Z,2.30
2023-05-05T10:03:32.866Z,2.60
2023-05-05T10:06:08.192Z,3.97
2023-05-05T10:08:48.120Z,2.77
2023-05-05T10:11:22.732Z,2.20
2023-05-05T10:14:00.475Z,1.87
2023-05-05T10:16:31.122Z,2.40
2023-05-05T10:19:04.340Z,2.23
2023-05-05T10:21:35.314Z,2.50
2023-05-05T10:24:08.820Z,1.83
2023-05-05T10:27:05.755Z,2.40
2023-05-05T10:29:38.760Z,2.23
2023-05-05T10:32:30.217Z,2.67
2023-05-05T10:35:02.063Z,2.60
2023-05-05T10:37:31.085Z,2.13
2023-05-05T10:39:59.798Z,2.80
2023-05-05T10:42:28.400Z,2.13
2023-05-05T10:44:56.864Z,4.43
2023-05-05T10:47:26.205Z,2.80
2023-05-05T10:49:56.900Z,3.37
2023-05-05T10:52:29.302Z,1.57
2023-05-05T10:55:03.540Z,2.67
2023-05-05T10:57:33.429Z,5.53
2023-05-05T11:00:01.718Z,2.50
2023-05-05T11:02:30.483Z,6.63
2023-05-05T11:05:05.987Z,3.17
2023-05-05T11:07:35.916Z,1.83
2023-05-05T11:10:05.055Z,2.53
2023-05-05T11:12:36.148Z,2.70
2023-05-05T11:15:24.922Z,5.17
2023-05-05T11:17:53.476Z,1.93
2023-05-05T11:20:47.289Z,2.70
2023-05-05T11:23:26.273Z,2.17
2023-05-05T11:25:57.365Z,3.47
2023-05-05T11:28:28.596Z,2.30
2023-05-05T11:31:15.542Z,5.63
2023-05-05T11:33:44.317Z,2.40
2023-05-05T11:36:13.709Z,1.80
2023-05-05T11:38:48.153Z,2.03
2023-05-05T11:41:28.800Z,3.57
2023-05-05T11:44:11.232Z,3.57
2023-05-05T11:46:39.744Z,2.40
2023-05-05T11:49:09.433Z,2.80
2023-05-05T11:51:38.314Z,2.60
2023-05-05T11:54:08.388Z,2.30
2023-05-05T11:56:36.783Z,2.53
2023-05-05T11:59:09.133Z,2.87
2023-05-05T12:01:37.769Z,2.80
2023-05-05T12:04:06.553Z,3.40
2023-05-05T12:06:35.114Z,2.60
2023-05-05T12:09:04.992Z,2.40
2023-05-05T12:11:36.875Z,3.47
2023-05-05T12:14:11.433Z,3.17
2023-05-05T12:16:40.106Z,2.27
2023-05-05T12:19:11.784Z,1.90
2023-05-05T12:21:40.107Z,1.83
2023-05-05T12:24:08.975Z,4.00
2023-05-05T12:26:38.763Z,3.80
2023-05-05T12:29:07.664Z,2.00
2023-05-05T12:31:36.968Z,2.60
2023-05-05T12:34:08.564Z,3.53
2023-05-05T12:36:37.561Z,2.50
2023-05-05T12:39:06.316Z,2.20
2023-05-05T12:41:35.123Z,2.30
2023-05-05T12:44:05.177Z,2.50
2023-05-05T12:46:46.572Z,3.43
2023-05-05T12:49:15.033Z,2.00
2023-05-05T12:51:54.965Z,2.17
2023-05-05T12:54:24.574Z,2.90
2023-05-05T12:56:53.089Z,3.27
2023-05-05T12:59:32.603Z,1.90
2023-05-05T13:02:02.348Z,1.70
2023-05-05T13:04:31.106Z,2.70
2023-05-05T13:07:12.779Z,2.33
2023-05-05T13:09:41.684Z,2.20
2023-05-05T13:12:12.026Z,1.60
2023-05-05T13:14:41.928Z,2.53
2023-05-05T13:17:10.712Z,2.30
2023-05-05T13:19:42.077Z,2.30
2023-05-05T13:22:11.516Z,2.23
2023-05-05T13:24:50.586Z,2.07
2023-05-05T13:27:20.856Z,2.63
2023-05-05T13:29:50.923Z,2.13
2023-05-05T13:32:20.251Z,3.83
2023-05-05T13:34:49.608Z,3.23
2023-05-05T13:37:18.022Z,2.87
2023-05-05T13:39:46.407Z,2.73
2023-05-05T13:42:15.118Z,3.03
2023-05-05T13:44:43.757Z,5.97
2023-05-05T13:47:15.240Z,2.10
2023-05-05T13:49:48.730Z,2.60
2023-05-05T13:52:18.154Z,2.57
2023-05-05T13:54:46.616Z,2.43
2023-05-05T13:57:15.180Z,2.40
2023-05-05T13:59:43.595Z,2.53
2023-05-05T14:02:13.514Z,6.67
2023-05-05T14:04:42.085Z,2.33
2023-05-05T14:07:10.605Z,2.00
2023-05-05T14:09:39.241Z,3.07
2023-05-05T14:12:08.032Z,2.10
2023-05-05T14:14:38.064Z,2.90
2023-05-05T14:17:07.422Z,3.57
2023-05-05T14:19:38.425Z,2.90
2023-05-05T14:22:07.345Z,2.57
2023-05-05T14:24:35.955Z,4.90
2023-05-05T14:27:04.827Z,3.00
2023-05-05T14:29:33.429Z,3.83
2023-05-05T14:32:02.404Z,4.07
2023-05-05T14:34:31.455Z,4.90
2023-05-05T14:37:02.361Z,5.10
2023-05-05T14:39:31.370Z,4.63
2023-05-05T14:42:00.591Z,3.63
2023-05-05T14:44:38.713Z,5.13
2023-05-05T14:47:08.667Z,2.97
2023-05-05T14:49:39.442Z,7.10
2023-05-05T14:52:24.054Z,3.93
2023-05-05T14:54:55.122Z,6.20
2023-05-05T14:57:24.167Z,6.00
2023-05-05T14:59:58.414Z,3.90
2023-05-05T15:02:32.355Z,3.57
2023-05-05T15:05:01.236Z,3.80
2023-05-05T15:07:33.807Z,5.23
2023-05-05T15:10:19.722Z,4.30
2023-05-05T15:12:51.271Z,6.90
2023-05-05T15:15:20.047Z,5.60
2023-05-05T15:17:48.710Z,6.10
2023-05-05T15:20:17.517Z,7.03
2023-05-05T15:22:48.997Z,3.40
2023-05-05T15:25:20.594Z,4.47
2023-05-05T15:28:09.389Z,3.40
2023-05-05T15:30:40.379Z,7.47
2023-05-05T15:33:11.763Z,4.90
2023-05-05T15:35:40.065Z,5.10
2023-05-05T15:38:12.816Z,6.47
2023-05-05T15:40:50.270Z,6.53
2023-05-05T15:43:20.162Z,5.10
2023-05-05T15:45:49.542Z,7.80
2023-05-05T15:48:21.053Z,4.70
2023-05-05T15:50:49.845Z,5.03
2023-05-05T15:53:19.054Z,5.20
2023-05-05T15:55:49.352Z,3.47
2023-05-05T15:58:18.066Z,3.57
2023-05-05T16:00:48.082Z,4.27
2023-05-05T16:03:16.784Z,5.43
2023-05-05T16:05:47.888Z,4.27
2023-05-05T16:08:16.491Z,3.33
2023-05-05T16:10:44.847Z,4.40
2023-05-05T16:13:14.684Z,4.43
2023-05-05T16:15:43.189Z,3.27
2023-05-05T16:18:11.524Z,3.50
2023-05-05T16:20:40.062Z,4.73
2023-05-05T16:23:08.665Z,7.23
2023-05-05T16:25:37.151Z,8.33
2023-05-05T16:28:05.821Z,3.63
2023-05-05T16:30:35.653Z,7.27
2023-05-05T16:33:04.099Z,4.03
2023-05-05T16:35:32.571Z,4.10
2023-05-05T16:38:01.153Z,4.93
2023-05-05T16:40:29.793Z,5.70
2023-05-05T16:42:58.377Z,5.13
2023-05-05T16:45:27.230Z,7.23
2023-05-05T16:47:57.025Z,8.83
2023-05-05T16:50:26.075Z,4.33
2023-05-05T16:52:54.417Z,9.67
2023-05-05T16:55:22.733Z,4.00
2023-05-05T16:57:51.473Z,3.27
2023-05-05T17:00:20.096Z,6.50
2023-05-05T17:02:48.771Z,4.80
2023-05-05T17:05:18.967Z,4.20
2023-05-05T17:07:48.405Z,3.77
2023-05-05T17:10:17.067Z,5.43
2023-05-05T17:12:45.885Z,2.70
2023-05-05T17:15:14.274Z,2.97
2023-05-05T17:17:43.302Z,3.07
2023-05-05T17:20:12.678Z,5.70
2023-05-05T17:22:42.766Z,3.50
2023-05-05T17:25:12.697Z,4.80
2023-05-05T17:27:42.511Z,3.10
2023-05-05T17:30:13.156Z,3.77
2023-05-05T17:32:42.254Z,4.80
2023-05-05T17:35:11.859Z,3.77
2023-05-05T17:37:43.246Z,2.77
2023-05-05T17:40:12.297Z,2.87
2023-05-05T17:42:42.755Z,4.63
2023-05-05T17:45:14.354Z,2.70
2023-05-05T17:47:43.850Z,3.33
2023-05-05T17:50:19.385Z,2.77
2023-05-05T17:52:50.894Z,2.57
2023-05-05T17:55:19.535Z,2.57
2023-05-05T17:57:56.848Z,3.10
2023-05-05T18:00:26.802Z,2.87
2023-05-05T18:03:01.057Z,3.77
2023-05-05T18:05:39.142Z,4.20
2023-05-05T18:08:12.258Z,2.77
2023-05-05T18:10:42.918Z,3.27
2023-05-05T18:13:14.101Z,3.33
2023-05-05T18:15:55.117Z,2.97
2023-05-05T18:18:24.434Z,3.57
2023-05-05T18:20:53.381Z,6.20
2023-05-05T18:23:24.783Z,3.03
2023-05-05T18:26:02.096Z,4.03
2023-05-05T18:28:31.427Z,6.33
2023-05-05T18:31:01.032Z,7.00
2023-05-05T18:33:32.721Z,4.43
2023-05-05T18:36:05.715Z,3.80
2023-05-05T18:38:37.588Z,6.53
2023-05-05T18:41:07.249Z,3.20
2023-05-05T18:43:37.252Z,3.43
2023-05-05T18:46:07.423Z,5.60
2023-05-05T18:48:36.664Z,3.90
2023-05-05T18:51:05.854Z,4.13
2023-05-05T18:54:04.302Z,7.10
2023-05-05T18:56:35.559Z,5.03
2023-05-05T18:59:14.336Z,7.20
2023-05-05T19:01:51.701Z,5.17
2023-05-05T19:04:30.844Z,6.87
2023-05-05T19:07:04.826Z,7.10
2023-05-05T19:09:33.352Z,5.07
2023-05-05T19:12:14.299Z,6.13
2023-05-05T19:14:42.768Z,4.93
2023-05-05T19:17:12.956Z,1.53
2023-05-05T19:19:42.133Z,3.80
2023-05-05T19:22:10.785Z,1.63
2023-05-05T19:24:39.682Z,3.70
2023-05-05T19:27:15.480Z,1.60
2023-05-05T19:29:45.492Z,2.97
2023-05-05T19:32:14.098Z,1.07
2023-05-05T19:34:43.501Z,1.07
2023-05-05T19:37:13.821Z,3.00
2023-05-05T19:39:44.485Z,2.90
2023-05-05T19:42:14.609Z,4.40
2023-05-05T19:44:46.233Z,5.03
2023-05-05T19:47:14.856Z,6.00
2023-05-05T19:49:49.638Z,1.90
2023-05-05T19:52:23.867Z,4.83
2023-05-05T19:54:52.270Z,2.30
2023-05-05T19:57:22.311Z,5.13
2023-05-05T19:59:50.708Z,4.10
2023-05-05T20:02:21.970Z,4.10
2023-05-05T20:04:50.719Z,3.27
2023-05-05T20:07:19.059Z,4.17
2023-05-05T20:09:48.717Z,2.40
2023-05-05T20:12:21.977Z,1.80
2023-05-05T20:14:51.918Z,3.87
2023-05-05T20:17:21.478Z,2.93
2023-05-05T20:19:52.758Z,2.60
2023-05-05T20:22:21.415Z,5.03
2023-05-05T20:24:49.936Z,15.40
2023-05-05T20:27:18.455Z,18.17
2023-05-05T20:29:47.661Z,46.53
2023-05-05T20:32:20.625Z,26.27
2023-05-05T20:34:49.482Z,22.27
2023-05-05T20:37:27.206Z,21.73
2023-05-05T20:39:56.768Z,20.23
2023-05-05T20:42:25.710Z,18.80
2023-05-05T20:44:54.170Z,7.70
2023-05-05T20:47:24.774Z,6.77
2023-05-05T20:49:53.515Z,6.93
2023-05-05T20:52:21.915Z,4.03
2023-05-05T20:54:50.593Z,5.03
2023-05-05T20:57:19.060Z,3.07
2023-05-05T20:59:47.777Z,4.20
2023-05-05T21:02:16.688Z,2.50
2023-05-05T21:04:46.843Z,3.27
2023-05-05T21:07:15.240Z,3.27
2023-05-05T21:09:44.832Z,2.20
2023-05-05T21:12:13.348Z,2.70
2023-05-05T21:14:45.896Z,3.20
2023-05-05T21:17:14.717Z,2.17
2023-05-05T21:19:43.285Z,2.50
2023-05-05T21:22:14.166Z,4.07
2023-05-05T21:24:42.639Z,1.53
2023-05-05T21:27:11.026Z,1.77
2023-05-05T21:29:39.472Z,3.37
2023-05-05T21:32:08.982Z,2.83
2023-05-05T21:34:37.692Z,1.47
2023-05-05T21:37:06.493Z,6.77
2023-05-05T21:39:36.324Z,5.30
2023-05-05T21:42:04.745Z,6.13
2023-05-05T21:44:33.181Z,1.73
2023-05-05T21:47:01.631Z,3.17
2023-05-05T21:49:31.048Z,1.20
2023-05-05T21:51:59.514Z,2.93
2023-05-05T21:54:28.050Z,2.43
2023-05-05T21:56:58.055Z,2.43
2023-05-05T21:59:26.436Z,1.93
2023-05-05T22:01:55.020Z,2.40
2023-05-05T22:04:23.560Z,2.20
2023-05-05T22:06:52.285Z,2.70
2023-05-05T22:09:20.951Z,4.10
2023-05-05T22:11:49.694Z,3.03
2023-05-05T22:14:19.555Z,3.00
2023-05-05T22:16:48.118Z,1.83
2023-05-05T22:19:18.121Z,1.80
2023-05-05T22:21:46.678Z,1.73
2023-05-05T22:24:15.035Z,1.80
2023-05-05T22:26:43.730Z,1.57
2023-05-05T22:29:12.516Z,1.93
2023-05-05T22:31:42.659Z,3.37
2023-05-05T22:34:14.508Z,2.20
2023-05-05T22:36:42.901Z,2.47
2023-05-05T22:39:11.905Z,2.73
2023-05-05T22:41:40.344Z,3.13
2023-05-05T22:44:08.754Z,2.23
2023-05-05T22:46:37.383Z,2.13
2023-05-05T22:49:07.416Z,3.00
2023-05-05T22:51:36.203Z,4.87
2023-05-05T22:54:04.720Z,2.83
2023-05-05T22:56:33.284Z,2.50
2023-05-05T22:59:01.655Z,1.70
2023-05-05T23:01:30.325Z,2.80
2023-05-05T23:03:58.894Z,2.60
2023-05-05T23:06:32.302Z,6.57
2023-05-05T23:09:02.187Z,5.37
2023-05-05T23:11:30.572Z,1.90
2023-05-05T23:13:58.903Z,2.57
2023-05-05T23:16:27.371Z,2.93
2023-05-05T23:18:55.850Z,1.87
2023-05-05T23:21:24.688Z,4.20
2023-05-05T23:23:52.979Z,6.53
2023-05-05T23:26:23.057Z,1.70
2023-05-05T23:28:51.720Z,2.80
2023-05-05T23:31:20.096Z,3.30
2023-05-05T23:33:48.974Z,1.47
2023-05-05T23:36:18.170Z,3.97
2023-05-05T23:38:46.519Z,2.03
2023-05-05T23:41:14.938Z,2.60
2023-05-05T23:43:45.118Z,2.40
2023-05-05T23:46:14.847Z,2.23
2023-05-05T23:48:43.221Z,1.83
2023-05-05T23:51:18.548Z,2.83
2023-05-05T23:53:46.897Z,3.10
2023-05-05T23:56:15.264Z,1.80
2023-05-05T23:58:45.097Z,2.40
